WZZ781 LIMC-LPPR
Flight info
| Callsign | WZZ781 |
|---|---|
| Flight time | N/A |
| Altitude | 38000 |
| Route | TOP6I TOP DCT IXUSA DCT RONOP DCT GIGUS DCT BALSI DCT GIPNO DCT RUSIT DCT ESIDA DCT LERGA DCT MINSO DCT NARAK DCT AGN DCT LATEK DCT PPN DCT MIRPO DCT DGO DCT NEA DCT ZMR L155 ADORO DCT CANAR DCT INKIT INKIT6C |
| Aircraft | A21N/M-SDE2E3FGHIRWXY/LB1 |
Departure
| Time | 2026-05-04 18:28 |
|---|---|
| Airport | Milan Malpensa International Airport (LIMC) |
Arrival
| Time | N/A |
|---|---|
| Airport | Francisco de Sá Carneiro Airport (LPPR) |
| Time | Latitude | Longitude | Altitude | Speed | Heading |
|---|---|---|---|---|---|
| 2026-05-04 18:27 | 45.71767 | 8.65340 | 5920 ft | 271 kts | 273° |
| 2026-05-04 18:28 | 45.71800 | 8.62620 | 6684 ft | 273 kts | 262° |
| 2026-05-04 18:28 | 45.71318 | 8.60011 | 7305 ft | 273 kts | 243° |
| 2026-05-04 18:28 | 45.70440 | 8.57598 | 8251 ft | 273 kts | 238° |
| 2026-05-04 18:28 | 45.69800 | 8.56046 | 8917 ft | 273 kts | 236° |
| 2026-05-04 18:29 | 45.68701 | 8.53853 | 9710 ft | 271 kts | 224° |
| 2026-05-04 18:29 | 45.67260 | 8.52101 | 10447 ft | 276 kts | 211° |
| 2026-05-04 18:29 | 45.65530 | 8.50700 | 10842 ft | 296 kts | 205° |
| 2026-05-04 18:29 | 45.63620 | 8.49457 | 11450 ft | 306 kts | 202° |
| 2026-05-04 18:30 | 45.59583 | 8.47183 | 12999 ft | 315 kts | 201° |
| 2026-05-04 18:30 | 45.57553 | 8.46068 | 13390 ft | 317 kts | 202° |
| 2026-05-04 18:30 | 45.55481 | 8.44929 | 13471 ft | 319 kts | 201° |
| 2026-05-04 18:31 | 45.53377 | 8.43839 | 13677 ft | 323 kts | 200° |
| 2026-05-04 18:31 | 45.51239 | 8.42778 | 14389 ft | 326 kts | 200° |
| 2026-05-04 18:31 | 45.49084 | 8.41725 | 15178 ft | 328 kts | 200° |
| 2026-05-04 18:31 | 45.46916 | 8.40668 | 15931 ft | 331 kts | 200° |
| 2026-05-04 18:32 | 45.44726 | 8.39597 | 16643 ft | 335 kts | 200° |
| 2026-05-04 18:32 | 45.42502 | 8.38505 | 17328 ft | 340 kts | 200° |
| 2026-05-04 18:32 | 45.40256 | 8.37399 | 18030 ft | 344 kts | 200° |
| 2026-05-04 18:32 | 45.37977 | 8.36273 | 18671 ft | 348 kts | 201° |
| 2026-05-04 18:33 | 45.35705 | 8.35151 | 19260 ft | 351 kts | 200° |
| 2026-05-04 18:33 | 45.33380 | 8.34003 | 19863 ft | 354 kts | 200° |
| 2026-05-04 18:33 | 45.31039 | 8.32848 | 20458 ft | 357 kts | 200° |
| 2026-05-04 18:33 | 45.28676 | 8.31683 | 21044 ft | 361 kts | 200° |
| 2026-05-04 18:34 | 45.26293 | 8.30510 | 21608 ft | 365 kts | 200° |
| 2026-05-04 18:34 | 45.23871 | 8.29319 | 22164 ft | 369 kts | 200° |
| 2026-05-04 18:34 | 45.21436 | 8.28123 | 22736 ft | 372 kts | 200° |
| 2026-05-04 18:34 | 45.19010 | 8.26933 | 23258 ft | 376 kts | 200° |
| 2026-05-04 18:35 | 45.16534 | 8.25719 | 23471 ft | 377 kts | 200° |
| 2026-05-04 18:35 | 45.14075 | 8.24403 | 23486 ft | 377 kts | 205° |
| 2026-05-04 18:35 | 45.11785 | 8.22575 | 23709 ft | 380 kts | 216° |
| 2026-05-04 18:35 | 45.09776 | 8.20132 | 24194 ft | 381 kts | 227° |
| 2026-05-04 18:36 | 45.08050 | 8.17277 | 24691 ft | 382 kts | 231° |
| 2026-05-04 18:36 | 45.06441 | 8.14271 | 25161 ft | 384 kts | 233° |
| 2026-05-04 18:36 | 45.04899 | 8.11187 | 25619 ft | 385 kts | 234° |
| 2026-05-04 18:36 | 45.03376 | 8.08053 | 26058 ft | 387 kts | 235° |
| 2026-05-04 18:37 | 45.01852 | 8.04902 | 26518 ft | 388 kts | 234° |
| 2026-05-04 18:37 | 45.00344 | 8.01808 | 26961 ft | 389 kts | 234° |
| 2026-05-04 18:37 | 44.98786 | 7.98641 | 27358 ft | 391 kts | 234° |
| 2026-05-04 18:37 | 44.97315 | 7.95407 | 27757 ft | 393 kts | 240° |
| 2026-05-04 18:38 | 44.96151 | 7.91888 | 28134 ft | 396 kts | 248° |
| 2026-05-04 18:38 | 44.95406 | 7.88124 | 28505 ft | 400 kts | 258° |
| 2026-05-04 18:38 | 44.95154 | 7.84197 | 28861 ft | 405 kts | 268° |
| 2026-05-04 18:38 | 44.95440 | 7.80209 | 29210 ft | 411 kts | 278° |
| 2026-05-04 18:39 | 44.96281 | 7.76324 | 29548 ft | 418 kts | 289° |
| 2026-05-04 18:39 | 44.97503 | 7.72575 | 29890 ft | 421 kts | 292° |
| 2026-05-04 18:39 | 44.98844 | 7.68889 | 30199 ft | 424 kts | 294° |
| 2026-05-04 18:39 | 45.00247 | 7.65215 | 30498 ft | 426 kts | 294° |
| 2026-05-04 18:40 | 45.01670 | 7.61534 | 30753 ft | 428 kts | 294° |
| 2026-05-04 18:40 | 45.03094 | 7.57830 | 31018 ft | 429 kts | 294° |
| 2026-05-04 18:40 | 45.04489 | 7.54162 | 31292 ft | 430 kts | 294° |
| 2026-05-04 18:40 | 45.05894 | 7.50424 | 31565 ft | 430 kts | 293° |
| 2026-05-04 18:41 | 45.07294 | 7.46669 | 31835 ft | 431 kts | 293° |
| 2026-05-04 18:41 | 45.08689 | 7.42903 | 32083 ft | 432 kts | 293° |
| 2026-05-04 18:41 | 45.10085 | 7.39123 | 32318 ft | 433 kts | 293° |
| 2026-05-04 18:41 | 45.11480 | 7.35336 | 32567 ft | 435 kts | 293° |
| 2026-05-04 18:42 | 45.12877 | 7.31540 | 32805 ft | 436 kts | 293° |
| 2026-05-04 18:42 | 45.15684 | 7.23898 | 32910 ft | 437 kts | 293° |
| 2026-05-04 18:42 | 45.17064 | 7.20053 | 33057 ft | 437 kts | 292° |
| 2026-05-04 18:43 | 45.18404 | 7.16247 | 33363 ft | 421 kts | 291° |
| 2026-05-04 18:43 | 45.19590 | 7.12568 | 33641 ft | 396 kts | 288° |
| 2026-05-04 18:43 | 45.20642 | 7.09014 | 33959 ft | 388 kts | 287° |
| 2026-05-04 18:44 | 45.22636 | 7.01868 | 34163 ft | 395 kts | 287° |
| 2026-05-04 18:44 | 45.23305 | 6.99459 | 34271 ft | 396 kts | 287° |
| 2026-05-04 18:44 | 45.24674 | 6.94581 | 34530 ft | 398 kts | 287° |
| 2026-05-04 18:44 | 45.25711 | 6.90927 | 34731 ft | 399 kts | 287° |
| 2026-05-04 18:45 | 45.26752 | 6.87273 | 34889 ft | 400 kts | 287° |
| 2026-05-04 18:45 | 45.27798 | 6.83610 | 35024 ft | 401 kts | 287° |
| 2026-05-04 18:45 | 45.28848 | 6.79936 | 35136 ft | 402 kts | 287° |
| 2026-05-04 18:46 | 45.30946 | 6.72584 | 35378 ft | 404 kts | 287° |
| 2026-05-04 18:46 | 45.32000 | 6.68884 | 35523 ft | 405 kts | 287° |
| 2026-05-04 18:46 | 45.33058 | 6.65160 | 35659 ft | 406 kts | 287° |
| 2026-05-04 18:46 | 45.34113 | 6.61437 | 35799 ft | 407 kts | 287° |
| 2026-05-04 18:47 | 45.35168 | 6.57706 | 35931 ft | 408 kts | 287° |
| 2026-05-04 18:47 | 45.37296 | 6.50166 | 36090 ft | 412 kts | 287° |
| 2026-05-04 18:47 | 45.38358 | 6.46381 | 36230 ft | 412 kts | 285° |
| 2026-05-04 18:48 | 45.39225 | 6.42559 | 36317 ft | 410 kts | 281° |
| 2026-05-04 18:48 | 45.40748 | 6.34738 | 36538 ft | 410 kts | 280° |
| 2026-05-04 18:48 | 45.41471 | 6.30816 | 36686 ft | 410 kts | 280° |
| 2026-05-04 18:49 | 45.42180 | 6.26910 | 36804 ft | 411 kts | 280° |
| 2026-05-04 18:49 | 45.43610 | 6.18989 | 36877 ft | 415 kts | 280° |
| 2026-05-04 18:50 | 45.45054 | 6.11001 | 37070 ft | 417 kts | 280° |
| 2026-05-04 18:50 | 45.45772 | 6.07025 | 37184 ft | 418 kts | 280° |
| 2026-05-04 18:50 | 45.46498 | 6.03008 | 37291 ft | 418 kts | 280° |
| 2026-05-04 18:51 | 45.47957 | 5.94964 | 37464 ft | 420 kts | 280° |
| 2026-05-04 18:51 | 45.49491 | 5.86900 | 37598 ft | 422 kts | 281° |
| 2026-05-04 18:51 | 45.50274 | 5.82852 | 37716 ft | 423 kts | 281° |
| 2026-05-04 18:52 | 45.51049 | 5.78852 | 37742 ft | 425 kts | 281° |
| 2026-05-04 18:52 | 45.52621 | 5.70685 | 37915 ft | 427 kts | 281° |
| 2026-05-04 18:53 | 45.54184 | 5.62495 | 38064 ft | 428 kts | 281° |
| 2026-05-04 18:53 | 45.55743 | 5.54267 | 38040 ft | 429 kts | 281° |
| 2026-05-04 18:53 | 45.56479 | 5.50244 | 37909 ft | 420 kts | 280° |
| 2026-05-04 18:54 | 45.57188 | 5.46199 | 38003 ft | 419 kts | 279° |
| 2026-05-04 18:54 | 45.58566 | 5.38089 | 37994 ft | 421 kts | 279° |
| 2026-05-04 18:55 | 45.59941 | 5.29938 | 37993 ft | 421 kts | 279° |
| 2026-05-04 18:55 | 45.62007 | 5.17729 | 37989 ft | 421 kts | 279° |
| 2026-05-04 18:56 | 45.63379 | 5.09596 | 37984 ft | 421 kts | 279° |
| 2026-05-04 18:56 | 45.64741 | 5.01485 | 37986 ft | 423 kts | 279° |